Time;durP1;ratioP1;P1;durP2;ratioP2;P2;SDS_P1;SDS_P2;PMS_P1;PMS_P2;Temp;Humidity;BMP_temperature;BMP_pressure;BME280_temperature;BME280_humidity;BME280_pressure;Samples;Min_cycle;Max_cycle;Signal;HPM_P1;HPM_P2
2021/08/11 00:01:28;;;;;;;13.23;6.30;;;16.10;92.30;;;;;;5054444;28;20444;-75
2021/08/11 00:03:54;;;;;;;11.30;5.07;;;16.00;92.40;;;;;;5055512;28;20377;-75
2021/08/11 00:06:20;;;;;;;13.50;5.45;;;16.00;92.30;;;;;;5037049;28;20041;-75
2021/08/11 00:08:46;;;;;;;10.00;5.65;;;16.00;92.30;;;;;;5054156;28;20063;-74
2021/08/11 00:11:13;;;;;;;12.23;5.68;;;16.00;92.30;;;;;;5054163;28;20037;-75
2021/08/11 00:13:38;;;;;;;8.68;5.10;;;15.90;92.30;;;;;;5054067;28;20032;-75
2021/08/11 00:16:05;;;;;;;8.50;4.85;;;15.90;92.30;;;;;;5055286;28;20032;-75
2021/08/11 00:18:30;;;;;;;11.27;5.35;;;15.80;92.30;;;;;;5053993;28;20029;-74
2021/08/11 00:20:56;;;;;;;12.65;5.45;;;15.80;92.40;;;;;;5037322;28;20054;-75
2021/08/11 00:23:24;;;;;;;12.30;5.03;;;15.80;92.70;;;;;;5054031;28;20045;-75
2021/08/11 00:25:53;;;;;;;10.48;5.75;;;15.80;92.50;;;;;;5053849;28;20029;-75
2021/08/11 00:28:20;;;;;;;8.90;5.68;;;15.70;92.50;;;;;;5053823;28;20025;-75
2021/08/11 00:30:45;;;;;;;9.95;5.22;;;15.70;92.50;;;;;;5053637;28;20055;-75
2021/08/11 00:33:11;;;;;;;10.07;5.15;;;15.70;92.50;;;;;;5053800;28;20025;-75
2021/08/11 00:35:37;;;;;;;9.20;5.55;;;15.70;92.50;;;;;;5053717;28;20040;-75
2021/08/11 00:38:02;;;;;;;10.07;5.53;;;15.70;92.50;;;;;;5053708;28;20075;-75
2021/08/11 00:40:31;;;;;;;9.95;5.40;;;15.60;92.50;;;;;;5053478;28;20063;-75
2021/08/11 00:42:57;;;;;;;11.15;5.57;;;15.60;92.60;;;;;;5055050;28;20025;-75
2021/08/11 00:45:23;;;;;;;9.63;5.68;;;15.50;92.60;;;;;;5036826;28;20029;-75
2021/08/11 00:47:51;;;;;;;12.18;6.20;;;15.50;92.60;;;;;;5053448;28;20449;-75
2021/08/11 00:50:18;;;;;;;13.20;6.50;;;15.50;92.70;;;;;;5055041;28;20036;-74
2021/08/11 00:52:43;;;;;;;9.18;5.68;;;15.50;92.80;;;;;;5054577;28;20039;-75
2021/08/11 00:55:10;;;;;;;12.98;5.95;;;15.50;92.80;;;;;;5053659;28;20060;-75
2021/08/11 00:57:37;;;;;;;9.48;6.05;;;15.40;92.80;;;;;;5053242;28;20025;-75
2021/08/11 01:00:04;;;;;;;9.55;6.10;;;15.40;92.90;;;;;;5053203;28;20059;-75
2021/08/11 01:02:32;;;;;;;10.93;6.47;;;15.30;93.00;;;;;;5054365;28;20068;-75
2021/08/11 01:04:59;;;;;;;11.75;6.93;;;15.30;93.20;;;;;;5036718;28;20082;-75
2021/08/11 01:07:27;;;;;;;12.00;6.97;;;15.30;93.30;;;;;;5054346;28;20021;-75
2021/08/11 01:09:54;;;;;;;13.23;6.25;;;15.30;93.30;;;;;;5053426;28;20029;-75
2021/08/11 01:12:23;;;;;;;11.93;6.65;;;15.30;93.40;;;;;;5053134;28;20033;-75
2021/08/11 01:14:50;;;;;;;11.23;6.03;;;15.20;93.50;;;;;;5054159;28;20061;-75
2021/08/11 01:17:16;;;;;;;10.25;6.38;;;15.20;93.50;;;;;;5053242;28;20059;-75
2021/08/11 01:19:41;;;;;;;13.18;6.30;;;15.20;93.60;;;;;;5054102;28;20451;-75
2021/08/11 01:22:15;;;;;;;9.85;5.97;;;15.20;93.60;;;;;;5052783;28;20401;-75
2021/08/11 01:25:07;;;;;;;10.98;6.05;;;15.20;93.60;;;;;;5052608;28;20439;-75
2021/08/11 01:27:53;;;;;;;9.68;6.10;;;15.20;93.60;;;;;;5053965;28;20032;-76
2021/08/11 01:30:29;;;;;;;11.38;6.72;;;15.20;93.50;;;;;;5038448;28;20077;-75
2021/08/11 01:32:58;;;;;;;12.75;5.80;;;15.10;93.50;;;;;;5029329;28;20025;-75
2021/08/11 01:35:37;;;;;;;9.60;5.47;;;15.10;93.50;;;;;;5014064;28;20076;-75
2021/08/11 01:38:09;;;;;;;10.80;5.85;;;15.10;93.50;;;;;;5014087;28;20156;-75
2021/08/11 01:40:36;;;;;;;9.95;6.75;;;15.00;93.50;;;;;;5014030;28;20108;-75
2021/08/11 01:43:04;;;;;;;12.57;6.70;;;15.00;93.60;;;;;;4996389;28;20040;-75
2021/08/11 01:45:40;;;;;;;12.77;6.90;;;15.10;93.60;;;;;;5015458;28;20029;-75
2021/08/11 01:48:10;;;;;;;11.43;6.50;;;15.00;93.70;;;;;;5026818;28;20132;-75
2021/08/11 01:50:39;;;;;;;9.70;6.30;;;15.00;93.70;;;;;;5013920;28;20374;-75
2021/08/11 01:53:06;;;;;;;11.93;6.80;;;15.00;93.70;;;;;;5014048;28;20378;-75
2021/08/11 01:55:33;;;;;;;10.45;6.53;;;14.90;93.70;;;;;;5013249;28;20359;-75
2021/08/11 01:57:59;;;;;;;12.07;7.30;;;14.90;93.80;;;;;;5029397;28;20014;-75
2021/08/11 02:00:25;;;;;;;10.73;5.93;;;14.90;93.90;;;;;;5014158;28;20517;-75
2021/08/11 02:02:53;;;;;;;13.60;7.22;;;14.90;93.90;;;;;;5014246;28;20101;-75
2021/08/11 02:05:21;;;;;;;9.27;6.32;;;14.80;93.90;;;;;;5013908;28;20033;-75
2021/08/11 02:07:47;;;;;;;12.40;6.82;;;14.80;93.90;;;;;;5012802;28;20018;-75
2021/08/11 02:10:14;;;;;;;10.95;7.07;;;14.80;93.90;;;;;;5013946;28;20061;-75
2021/08/11 02:12:40;;;;;;;11.88;7.05;;;14.80;93.90;;;;;;5013060;28;20057;-76
2021/08/11 02:15:08;;;;;;;8.82;6.10;;;14.80;93.90;;;;;;5014180;28;20062;-75
2021/08/11 02:17:36;;;;;;;12.25;7.32;;;14.80;93.90;;;;;;5014125;28;20036;-73
2021/08/11 02:20:01;;;;;;;12.23;7.28;;;14.80;94.00;;;;;;5013694;28;20577;-76
2021/08/11 02:22:27;;;;;;;11.73;7.63;;;14.80;94.00;;;;;;5029146;28;20069;-75
2021/08/11 02:24:52;;;;;;;10.82;7.00;;;14.70;94.10;;;;;;5012719;28;20022;-75
2021/08/11 02:27:25;;;;;;;13.32;7.50;;;14.70;94.20;;;;;;5029418;28;20030;-75
2021/08/11 02:29:52;;;;;;;13.77;6.75;;;14.70;94.30;;;;;;5040806;28;20129;-75
2021/08/11 02:32:39;;;;;;;11.20;7.25;;;14.70;94.30;;;;;;5059915;28;20024;-75
2021/08/11 02:35:16;;;;;;;16.77;7.30;;;14.70;94.40;;;;;;5059920;28;20534;-75
2021/08/11 02:38:03;;;;;;;11.15;6.40;;;14.70;94.40;;;;;;5058584;28;20028;-75
2021/08/11 02:40:39;;;;;;;10.38;6.95;;;14.60;94.30;;;;;;5058633;28;20070;-76
2021/08/11 02:43:10;;;;;;;10.68;6.25;;;14.60;94.30;;;;;;5058489;28;20111;-75
2021/08/11 02:45:38;;;;;;;14.48;7.40;;;14.60;94.30;;;;;;5058311;28;20126;-75
2021/08/11 02:48:06;;;;;;;11.43;6.22;;;14.60;94.30;;;;;;5059729;28;20465;-75
2021/08/11 02:50:32;;;;;;;9.48;5.93;;;14.60;94.30;;;;;;5058794;28;20044;-75
2021/08/11 02:52:59;;;;;;;7.55;5.30;;;14.60;94.30;;;;;;5059892;28;20024;-75
2021/08/11 02:55:25;;;;;;;9.60;6.13;;;14.50;94.30;;;;;;5058947;28;20033;-75
2021/08/11 02:57:51;;;;;;;9.68;6.20;;;14.50;94.40;;;;;;5058989;28;20079;-75
2021/08/11 03:00:18;;;;;;;9.93;6.00;;;14.50;94.40;;;;;;5058806;28;20025;-75
2021/08/11 03:02:44;;;;;;;9.20;6.28;;;14.50;94.50;;;;;;5058612;28;20032;-75
2021/08/11 03:05:11;;;;;;;8.27;5.50;;;14.50;94.50;;;;;;5058502;28;20041;-75
2021/08/11 03:07:37;;;;;;;9.73;5.80;;;14.40;94.50;;;;;;5041715;28;20167;-75
2021/08/11 03:10:04;;;;;;;8.98;5.68;;;14.40;94.50;;;;;;5041807;28;20029;-75
2021/08/11 03:12:29;;;;;;;8.52;5.68;;;14.40;94.60;;;;;;5058302;28;20338;-75
2021/08/11 03:14:55;;;;;;;10.43;6.38;;;14.30;94.50;;;;;;5059872;28;20032;-75
2021/08/11 03:17:24;;;;;;;8.65;5.65;;;14.40;94.60;;;;;;5058472;28;20025;-75
2021/08/11 03:19:50;;;;;;;7.93;5.20;;;14.40;94.60;;;;;;5059854;28;20487;-75
2021/08/11 03:22:16;;;;;;;8.75;5.72;;;14.40;94.60;;;;;;5059880;28;20041;-75
2021/08/11 03:24:41;;;;;;;10.57;6.07;;;14.40;94.60;;;;;;5058402;28;20039;-75
2021/08/11 03:27:07;;;;;;;9.27;5.80;;;14.30;94.60;;;;;;5058228;28;20033;-75
2021/08/11 03:29:33;;;;;;;9.85;6.72;;;14.40;94.70;;;;;;5041470;28;20131;-75
2021/08/11 03:31:59;;;;;;;9.43;6.38;;;14.30;94.60;;;;;;5058344;28;20567;-75
2021/08/11 03:34:24;;;;;;;8.32;6.03;;;14.30;94.60;;;;;;5059449;28;20039;-75
2021/08/11 03:36:50;;;;;;;10.30;6.65;;;14.30;94.70;;;;;;5059439;28;20115;-75
2021/08/11 03:39:16;;;;;;;10.07;7.00;;;14.30;94.80;;;;;;5040012;28;20036;-75
2021/08/11 03:41:41;;;;;;;10.77;7.43;;;14.30;94.90;;;;;;5054802;28;20032;-75
2021/08/11 03:44:07;;;;;;;8.93;6.35;;;14.30;95.00;;;;;;5055272;28;20037;-75
2021/08/11 03:46:33;;;;;;;8.85;6.68;;;14.30;95.00;;;;;;5055087;28;20057;-75
2021/08/11 03:48:58;;;;;;;9.88;7.00;;;14.30;95.00;;;;;;5055003;28;20104;-75
2021/08/11 03:51:24;;;;;;;9.15;6.88;;;14.30;95.00;;;;;;5055994;28;20029;-75
2021/08/11 03:53:50;;;;;;;11.35;7.25;;;14.30;95.10;;;;;;5055030;28;20499;-75
2021/08/11 03:56:15;;;;;;;11.52;7.55;;;14.30;95.10;;;;;;5054796;28;20047;-75
2021/08/11 03:58:41;;;;;;;16.60;9.85;;;14.30;95.10;;;;;;5054846;28;20033;-75
2021/08/11 04:01:06;;;;;;;15.98;10.02;;;14.30;95.40;;;;;;5054341;28;20389;-75
2021/08/11 04:03:32;;;;;;;24.13;11.95;;;14.30;95.20;;;;;;5037407;28;20484;-75
2021/08/11 04:05:58;;;;;;;24.65;12.65;;;14.30;95.30;;;;;;5054837;28;20060;-75
2021/08/11 04:08:24;;;;;;;28.85;12.95;;;14.40;95.30;;;;;;5053741;28;20025;-75
2021/08/11 04:10:51;;;;;;;37.72;14.38;;;14.40;95.70;;;;;;5054659;28;20025;-75
2021/08/11 04:13:18;;;;;;;43.97;15.00;;;14.50;95.50;;;;;;5055842;28;20117;-75
2021/08/11 04:15:45;;;;;;;53.75;14.68;;;14.50;95.50;;;;;;5055173;28;20021;-75
2021/08/11 04:18:10;;;;;;;54.13;13.00;;;14.50;95.60;;;;;;5054295;28;20385;-75
2021/08/11 04:20:37;;;;;;;57.03;13.32;;;14.50;95.70;;;;;;5037676;28;20033;-75
2021/08/11 04:23:03;;;;;;;38.78;12.27;;;14.50;95.80;;;;;;5037679;28;20025;-75
2021/08/11 04:25:30;;;;;;;25.88;11.18;;;14.50;95.80;;;;;;5055454;28;20032;-75
2021/08/11 04:27:56;;;;;;;53.28;11.10;;;14.60;95.90;;;;;;5037724;28;20025;-75
2021/08/11 04:30:22;;;;;;;55.63;11.73;;;14.60;95.90;;;;;;5053758;28;20512;-75
2021/08/11 04:32:47;;;;;;;62.05;12.25;;;14.60;96.00;;;;;;5053893;28;20021;-75
2021/08/11 04:35:13;;;;;;;25.90;11.30;;;14.60;96.00;;;;;;5053826;28;20044;-75
2021/08/11 04:37:40;;;;;;;25.67;12.95;;;14.60;96.10;;;;;;5063752;28;20042;-75
2021/08/11 04:40:07;;;;;;;33.03;11.60;;;14.60;96.10;;;;;;5073390;28;20033;-76
2021/08/11 04:42:33;;;;;;;32.70;12.73;;;14.60;96.20;;;;;;5057928;28;20033;-75
2021/08/11 04:44:59;;;;;;;37.28;13.13;;;14.70;96.20;;;;;;5069179;28;20036;-75
2021/08/11 04:47:25;;;;;;;30.33;13.07;;;14.70;96.50;;;;;;5075287;28;20047;-76
2021/08/11 04:49:51;;;;;;;46.13;12.38;;;14.80;96.30;;;;;;5056264;28;20527;-75
2021/08/11 04:52:17;;;;;;;31.25;11.75;;;14.70;96.30;;;;;;5052082;28;20021;-74
2021/08/11 04:54:42;;;;;;;31.77;11.82;;;14.80;96.40;;;;;;5054713;28;20113;-75
2021/08/11 04:57:08;;;;;;;45.42;11.52;;;14.80;96.40;;;;;;5054182;28;20037;-75
2021/08/11 04:59:34;;;;;;;31.55;10.40;;;14.80;96.40;;;;;;5070037;28;20067;-75
2021/08/11 05:01:59;;;;;;;60.28;11.40;;;14.80;96.40;;;;;;5054666;28;20532;-75
2021/08/11 05:04:25;;;;;;;51.65;10.73;;;14.90;96.40;;;;;;5070172;28;20029;-75
2021/08/11 05:06:51;;;;;;;43.08;11.27;;;14.90;96.30;;;;;;5053227;28;20124;-76
2021/08/11 05:09:17;;;;;;;24.52;10.60;;;14.90;96.30;;;;;;5070039;28;20112;-75
2021/08/11 05:11:42;;;;;;;49.45;11.45;;;14.80;96.30;;;;;;5053132;28;20036;-75
2021/08/11 05:14:08;;;;;;;34.58;10.48;;;14.90;96.40;;;;;;5052941;28;20059;-76
2021/08/11 05:16:34;;;;;;;16.45;10.88;;;14.90;96.40;;;;;;5052835;28;20500;-76
2021/08/11 05:18:59;;;;;;;27.90;10.90;;;14.90;96.40;;;;;;5069653;28;20044;-76
2021/08/11 05:21:25;;;;;;;31.33;11.45;;;14.90;96.40;;;;;;5069576;28;20110;-75
2021/08/11 05:23:51;;;;;;;18.73;10.95;;;15.00;96.40;;;;;;5052832;28;20091;-76
2021/08/11 05:26:17;;;;;;;21.25;12.02;;;14.90;96.40;;;;;;5069699;28;20112;-76
2021/08/11 05:28:44;;;;;;;20.20;12.18;;;15.00;96.40;;;;;;5069260;28;20119;-76
2021/08/11 05:31:09;;;;;;;15.45;10.48;;;15.00;96.30;;;;;;5070361;28;20049;-75
2021/08/11 05:33:35;;;;;;;24.00;11.77;;;15.00;96.30;;;;;;5072428;28;20033;-76
2021/08/11 05:36:01;;;;;;;17.52;11.50;;;15.00;96.30;;;;;;5038262;28;20032;-76
2021/08/11 05:38:27;;;;;;;14.35;11.52;;;15.10;96.60;;;;;;5055548;28;20031;-76
2021/08/11 05:40:53;;;;;;;15.70;11.77;;;15.00;96.30;;;;;;5072404;28;20062;-76
2021/08/11 05:43:19;;;;;;;18.00;12.07;;;15.10;96.30;;;;;;5072437;28;20036;-75
2021/08/11 05:45:45;;;;;;;14.65;10.48;;;15.10;96.30;;;;;;5054940;28;20025;-77
2021/08/11 05:48:11;;;;;;;14.00;10.60;;;15.10;96.40;;;;;;5073662;28;20071;-76
2021/08/11 05:50:37;;;;;;;13.55;10.85;;;15.20;96.30;;;;;;5072279;28;20021;-76
2021/08/11 05:53:03;;;;;;;14.75;11.50;;;15.20;96.20;;;;;;5072327;28;20054;-76
2021/08/11 05:55:28;;;;;;;17.67;11.75;;;15.20;96.20;;;;;;5073880;28;20111;-76
2021/08/11 05:57:54;;;;;;;16.20;11.48;;;15.10;96.20;;;;;;5052738;28;20171;-76
2021/08/11 06:00:20;;;;;;;14.70;10.70;;;15.20;96.30;;;;;;5055595;28;20025;-76
2021/08/11 06:02:45;;;;;;;16.60;11.48;;;15.20;96.30;;;;;;5055031;28;20090;-76
2021/08/11 06:05:11;;;;;;;14.98;11.45;;;15.20;96.20;;;;;;5055790;28;20476;-76
2021/08/11 06:07:38;;;;;;;15.07;10.88;;;15.10;96.30;;;;;;5055704;28;20032;-76
2021/08/11 06:10:05;;;;;;;13.63;10.88;;;15.30;96.30;;;;;;5073503;28;20033;-76
2021/08/11 06:12:31;;;;;;;13.30;10.27;;;15.20;96.30;;;;;;5072103;28;20107;-76
2021/08/11 06:14:57;;;;;;;14.50;10.38;;;15.30;96.30;;;;;;5072422;28;20056;-76
2021/08/11 06:17:22;;;;;;;15.05;10.45;;;15.40;96.20;;;;;;5071975;28;20108;-76
2021/08/11 06:19:48;;;;;;;13.75;10.20;;;15.50;96.20;;;;;;5038313;28;20082;-76
2021/08/11 06:22:15;;;;;;;13.13;10.23;;;15.50;96.30;;;;;;5035882;28;20036;-76
2021/08/11 06:24:41;;;;;;;13.65;10.63;;;15.60;96.30;;;;;;5035452;28;20041;-76
2021/08/11 06:27:06;;;;;;;14.20;10.63;;;15.60;96.20;;;;;;5035270;28;20052;-75
2021/08/11 06:29:32;;;;;;;13.82;10.38;;;15.70;96.30;;;;;;5052076;28;20095;-76
2021/08/11 06:31:57;;;;;;;14.60;10.85;;;15.70;96.20;;;;;;5051975;28;20060;-76
2021/08/11 06:34:24;;;;;;;13.75;10.70;;;15.80;96.20;;;;;;5035514;28;20128;-76
2021/08/11 06:36:54;;;;;;;14.70;10.85;;;15.80;96.20;;;;;;5035308;28;20032;-76
2021/08/11 06:39:19;;;;;;;13.25;9.90;;;15.80;96.10;;;;;;5035438;28;20048;-76
2021/08/11 06:41:46;;;;;;;13.35;10.45;;;15.90;96.10;;;;;;5052996;28;20553;-76
2021/08/11 06:44:11;;;;;;;13.10;10.30;;;15.90;96.20;;;;;;5051838;28;20087;-76
2021/08/11 06:46:37;;;;;;;13.23;10.48;;;15.90;96.10;;;;;;5052214;28;20031;-76
2021/08/11 06:49:02;;;;;;;15.15;9.93;;;16.00;96.10;;;;;;5052160;28;20113;-76
2021/08/11 06:51:28;;;;;;;14.32;10.70;;;16.10;96.10;;;;;;5053646;28;20060;-76
2021/08/11 06:53:54;;;;;;;15.82;11.60;;;16.10;96.10;;;;;;5052148;28;20029;-75
2021/08/11 06:56:20;;;;;;;14.98;10.88;;;16.10;96.10;;;;;;5053575;28;20040;-75
2021/08/11 06:58:45;;;;;;;14.65;11.50;;;16.20;96.10;;;;;;5051964;28;20064;-75
2021/08/11 07:01:11;;;;;;;16.10;10.98;;;16.30;96.10;;;;;;5035563;28;20071;-76
2021/08/11 07:03:36;;;;;;;15.32;11.55;;;16.30;96.20;;;;;;5051938;28;20526;-75
2021/08/11 07:06:02;;;;;;;17.48;13.00;;;16.30;96.20;;;;;;5035317;28;20111;-76
2021/08/11 07:08:28;;;;;;;14.98;11.43;;;16.40;96.20;;;;;;5035699;28;20111;-76
2021/08/11 07:10:54;;;;;;;17.58;10.80;;;16.50;96.30;;;;;;5052862;28;20033;-76
2021/08/11 07:13:20;;;;;;;18.50;11.85;;;16.50;96.30;;;;;;5052126;28;20021;-75
2021/08/11 07:15:45;;;;;;;15.25;11.15;;;16.60;96.30;;;;;;5054143;28;20412;-76
2021/08/11 07:18:19;;;;;;;15.98;11.15;;;16.60;96.30;;;;;;5055592;28;20029;-76
2021/08/11 07:20:46;;;;;;;15.93;11.77;;;16.70;96.40;;;;;;5056748;28;20039;-76
2021/08/11 07:23:12;;;;;;;16.13;11.80;;;16.70;96.40;;;;;;5055392;28;20538;-75
2021/08/11 07:25:38;;;;;;;17.48;12.00;;;16.80;96.50;;;;;;5038312;28;20075;-75
2021/08/11 07:28:04;;;;;;;15.23;11.80;;;16.80;96.60;;;;;;5055304;28;20029;-75
2021/08/11 07:30:29;;;;;;;15.73;12.35;;;16.90;96.60;;;;;;5056412;28;20127;-75
2021/08/11 07:32:55;;;;;;;16.38;12.07;;;16.90;96.60;;;;;;5055363;28;20120;-75
2021/08/11 07:35:21;;;;;;;18.17;12.18;;;17.00;96.70;;;;;;5038772;28;20511;-75
2021/08/11 07:37:52;;;;;;;15.68;11.60;;;17.00;96.70;;;;;;5054861;28;20075;-74
2021/08/11 07:40:19;;;;;;;15.73;11.38;;;17.20;96.70;;;;;;5055178;28;20087;-75
2021/08/11 07:42:46;;;;;;;19.00;11.75;;;17.20;96.70;;;;;;5055263;28;20033;-75
2021/08/11 07:45:13;;;;;;;15.73;10.80;;;17.30;96.90;;;;;;5038528;28;20040;-75
2021/08/11 07:47:39;;;;;;;17.75;11.23;;;17.40;96.60;;;;;;5055026;28;20029;-75
2021/08/11 07:50:06;;;;;;;13.93;9.20;;;17.40;96.50;;;;;;5054753;28;20024;-74
2021/08/11 07:52:32;;;;;;;12.73;8.65;;;17.40;96.40;;;;;;5054974;28;20021;-74
2021/08/11 07:54:57;;;;;;;13.63;8.95;;;17.50;96.20;;;;;;5054697;28;20037;-75
2021/08/11 07:57:23;;;;;;;14.25;9.02;;;17.60;96.10;;;;;;5056142;28;20474;-75
2021/08/11 07:59:48;;;;;;;12.40;8.82;;;17.60;95.80;;;;;;5054603;28;20032;-75
2021/08/11 08:02:14;;;;;;;13.10;9.00;;;17.70;95.70;;;;;;5038199;28;20492;-78
2021/08/11 08:04:43;;;;;;;13.18;9.10;;;17.80;95.60;;;;;;5038020;28;20401;-78
2021/08/11 08:07:09;;;;;;;13.00;8.40;;;17.80;95.40;;;;;;5055762;28;20056;-78
2021/08/11 08:09:35;;;;;;;13.93;9.07;;;17.90;95.20;;;;;;5054523;28;20060;-76
2021/08/11 08:12:01;;;;;;;16.98;9.95;;;18.00;95.20;;;;;;5038339;28;20025;-75
2021/08/11 08:14:26;;;;;;;15.95;10.48;;;18.10;95.00;;;;;;5054434;28;20070;-77
2021/08/11 08:16:52;;;;;;;17.38;11.52;;;18.10;94.80;;;;;;5054195;28;20021;-77
2021/08/11 08:19:18;;;;;;;15.98;10.82;;;18.20;94.60;;;;;;5037562;28;20029;-77
2021/08/11 08:21:44;;;;;;;17.83;10.68;;;18.30;94.50;;;;;;5054263;28;20035;-77
2021/08/11 08:24:10;;;;;;;17.00;11.35;;;18.40;94.40;;;;;;5037526;28;20017;-76
2021/08/11 08:26:36;;;;;;;15.02;10.93;;;18.50;94.30;;;;;;5055214;28;20044;-76
2021/08/11 08:29:01;;;;;;;19.35;12.15;;;18.50;94.10;;;;;;5055048;28;20029;-76
2021/08/11 08:31:28;;;;;;;16.52;11.55;;;18.60;94.10;;;;;;5037727;28;20101;-74
2021/08/11 08:33:54;;;;;;;16.73;11.43;;;18.70;94.00;;;;;;5054788;28;20459;-76
2021/08/11 08:36:20;;;;;;;18.45;11.25;;;18.80;93.90;;;;;;5055397;28;20457;-77
2021/08/11 08:38:45;;;;;;;15.00;11.23;;;18.90;93.80;;;;;;5054256;28;20044;-76
2021/08/11 08:41:12;;;;;;;18.02;11.63;;;19.00;93.70;;;;;;5037525;28;20021;-76
2021/08/11 08:43:38;;;;;;;16.10;11.82;;;19.10;93.60;;;;;;5053718;28;20120;-76
2021/08/11 08:46:05;;;;;;;17.08;11.63;;;19.20;93.50;;;;;;5037376;28;20025;-76
2021/08/11 08:48:32;;;;;;;15.77;11.68;;;19.30;93.40;;;;;;5054859;28;20052;-76
2021/08/11 08:50:58;;;;;;;16.33;11.70;;;19.40;93.20;;;;;;5055327;28;20028;-76
2021/08/11 08:53:24;;;;;;;16.73;11.43;;;19.60;93.00;;;;;;5055187;28;20112;-76
2021/08/11 08:55:52;;;;;;;16.58;11.48;;;19.70;92.90;;;;;;5037043;28;20025;-76
2021/08/11 08:58:18;;;;;;;15.88;11.65;;;19.70;92.70;;;;;;5036961;28;20056;-75
2021/08/11 09:00:44;;;;;;;17.00;11.10;;;19.90;92.50;;;;;;5053749;28;20029;-76
2021/08/11 09:03:10;;;;;;;16.60;12.07;;;20.00;92.20;;;;;;5036894;28;20029;-77
2021/08/11 09:05:36;;;;;;;16.90;12.07;;;20.10;92.00;;;;;;5053558;28;20468;-77
2021/08/11 09:08:01;;;;;;;15.23;10.70;;;20.20;91.70;;;;;;5053720;28;20036;-77
2021/08/11 09:10:30;;;;;;;14.70;10.77;;;20.20;91.50;;;;;;5036779;28;20029;-76
2021/08/11 09:13:06;;;;;;;16.40;11.50;;;20.30;91.40;;;;;;5054596;28;20175;-76
2021/08/11 09:15:38;;;;;;;13.40;9.00;;;20.30;91.30;;;;;;5053557;28;20039;-76
2021/08/11 09:18:30;;;;;;;14.48;10.07;;;20.40;91.20;;;;;;5053120;28;20043;-76
2021/08/11 09:21:03;;;;;;;14.32;9.68;;;20.40;91.00;;;;;;5054481;28;20078;-76
2021/08/11 09:23:48;;;;;;;15.88;10.02;;;20.50;90.90;;;;;;5053102;28;20408;-77
2021/08/11 09:26:16;;;;;;;16.35;9.90;;;20.50;90.80;;;;;;5054187;28;20067;-76
2021/08/11 09:28:44;;;;;;;15.45;10.35;;;20.60;90.70;;;;;;5054230;28;20066;-76
2021/08/11 09:31:31;;;;;;;11.95;8.63;;;20.60;90.70;;;;;;5053831;28;20124;-76
2021/08/11 09:34:02;;;;;;;15.25;10.02;;;20.60;90.20;;;;;;5036429;28;20094;-77
2021/08/11 09:36:52;;;;;;;13.23;9.45;;;20.60;90.00;;;;;;5052802;28;20025;-75
2021/08/11 09:39:18;;;;;;;12.55;8.75;;;20.60;89.60;;;;;;5052174;28;20032;-74
2021/08/11 09:42:02;;;;;;;14.10;9.10;;;20.60;89.50;;;;;;5054109;28;20437;-76
2021/08/11 09:44:28;;;;;;;13.27;9.63;;;20.70;89.40;;;;;;5052777;28;20036;-75
2021/08/11 09:46:54;;;;;;;14.23;9.38;;;20.80;89.30;;;;;;5052769;28;20033;-76
2021/08/11 09:49:24;;;;;;;12.57;8.77;;;20.90;89.00;;;;;;5053432;28;20025;-75
2021/08/11 09:52:00;;;;;;;14.50;8.45;;;20.90;88.50;;;;;;5071911;28;20009;-76
2021/08/11 09:54:28;;;;;;;11.75;8.18;;;21.00;88.20;;;;;;5072305;28;20041;-76
2021/08/11 09:56:54;;;;;;;12.07;8.27;;;21.10;87.90;;;;;;5073317;28;20082;-76
2021/08/11 09:59:20;;;;;;;12.32;7.03;;;21.20;87.20;;;;;;5072271;28;20037;-74
2021/08/11 10:01:45;;;;;;;10.18;6.50;;;21.20;86.70;;;;;;5073470;28;20445;-76
2021/08/11 10:04:11;;;;;;;10.05;6.68;;;21.30;85.80;;;;;;5072016;28;20040;-75
2021/08/11 10:06:43;;;;;;;9.32;6.50;;;21.40;85.70;;;;;;5072175;28;20426;-76
2021/08/11 10:09:13;;;;;;;8.43;5.60;;;21.40;85.20;;;;;;5072040;28;20496;-76
2021/08/11 10:11:40;;;;;;;8.55;5.30;;;21.40;85.10;;;;;;5073426;28;20024;-75
2021/08/11 10:14:10;;;;;;;8.25;5.03;;;21.50;84.90;;;;;;5069247;28;20024;-75
2021/08/11 10:16:36;;;;;;;7.00;4.78;;;21.60;84.50;;;;;;5070834;28;20039;-76
2021/08/11 10:19:04;;;;;;;6.70;3.80;;;21.60;83.70;;;;;;5073242;28;20115;-75
2021/08/11 10:21:34;;;;;;;6.35;4.20;;;21.70;83.40;;;;;;5073227;28;20036;-77
2021/08/11 10:24:00;;;;;;;8.10;5.20;;;21.80;83.30;;;;;;5073582;28;20021;-76
2021/08/11 10:26:28;;;;;;;6.88;5.10;;;21.90;83.10;;;;;;5055323;28;20380;-75
2021/08/11 10:28:54;;;;;;;8.77;5.15;;;22.00;82.50;;;;;;5071892;28;20039;-75
2021/08/11 10:31:20;;;;;;;6.28;3.70;;;22.10;82.00;;;;;;5073611;28;20153;-76
2021/08/11 10:33:47;;;;;;;7.63;4.88;;;22.20;81.40;;;;;;5073761;28;20060;-75
2021/08/11 10:36:14;;;;;;;8.10;5.18;;;22.20;80.70;;;;;;5072376;28;20017;-76
2021/08/11 10:38:43;;;;;;;6.88;5.03;;;22.30;80.20;;;;;;5073175;28;20025;-75
2021/08/11 10:41:10;;;;;;;8.27;4.38;;;22.40;79.90;;;;;;5073127;28;20380;-75
2021/08/11 10:43:36;;;;;;;6.93;4.03;;;22.50;79.80;;;;;;5073300;28;20437;-75
2021/08/11 10:46:06;;;;;;;8.30;4.57;;;22.60;79.30;;;;;;5073181;28;20024;-76
2021/08/11 10:48:32;;;;;;;6.10;3.33;;;22.60;78.90;;;;;;5073076;28;20025;-75
2021/08/11 10:50:58;;;;;;;5.40;3.03;;;22.70;78.80;;;;;;5076638;28;20356;-75
2021/08/11 10:53:24;;;;;;;6.20;3.58;;;22.90;77.90;;;;;;5076064;28;20078;-75
2021/08/11 10:55:51;;;;;;;6.35;3.50;;;23.00;77.30;;;;;;5077331;28;20029;-75
2021/08/11 10:58:35;;;;;;;4.38;2.85;;;23.20;76.50;;;;;;5077571;28;20029;-76
2021/08/11 11:01:02;;;;;;;4.95;2.88;;;23.20;75.80;;;;;;5075726;28;20519;-75
2021/08/11 11:03:51;;;;;;;5.38;3.15;;;23.30;75.90;;;;;;5076805;28;20032;-76
2021/08/11 11:06:17;;;;;;;5.53;3.20;;;23.50;74.70;;;;;;5075511;28;20361;-76
2021/08/11 11:08:43;;;;;;;5.38;2.88;;;23.70;75.50;;;;;;5077039;28;20028;-76
2021/08/11 11:11:31;;;;;;;5.32;3.10;;;23.90;74.40;;;;;;5076812;28;20024;-76
2021/08/11 11:13:56;;;;;;;3.92;2.47;;;24.20;73.30;;;;;;5077091;28;20025;-77
2021/08/11 11:16:42;;;;;;;6.05;3.88;;;24.30;73.40;;;;;;5075612;28;20033;-76
2021/08/11 11:19:08;;;;;;;5.50;3.60;;;24.40;73.00;;;;;;5075158;28;20086;-76
2021/08/11 11:21:34;;;;;;;5.50;3.15;;;24.60;72.40;;;;;;5075324;28;20025;-76
2021/08/11 11:23:59;;;;;;;5.18;3.10;;;24.80;71.40;;;;;;5058478;28;20046;-76
2021/08/11 11:26:33;;;;;;;5.30;3.13;;;25.00;70.60;;;;;;5076580;28;20126;-76
2021/08/11 11:29:11;;;;;;;4.70;3.22;;;25.20;69.30;;;;;;5076796;28;20049;-77
2021/08/11 11:31:55;;;;;;;5.95;3.00;;;25.40;68.30;;;;;;5075188;28;20028;-76
2021/08/11 11:34:36;;;;;;;4.78;3.05;;;25.50;67.50;;;;;;5075280;28;20028;-76
2021/08/11 11:37:02;;;;;;;4.93;3.08;;;25.60;67.10;;;;;;5058451;28;20483;-76
2021/08/11 11:40:02;;;;;;;5.72;2.72;;;25.70;67.30;;;;;;5074867;28;20031;-76
2021/08/11 11:42:28;;;;;;;6.15;2.50;;;25.80;66.00;;;;;;5075050;28;20025;-77
2021/08/11 11:45:02;;;;;;;3.85;2.20;;;25.90;66.00;;;;;;5058510;28;20051;-77
2021/08/11 11:47:40;;;;;;;6.40;3.50;;;26.00;65.00;;;;;;5075040;28;20016;-76
2021/08/11 11:50:21;;;;;;;5.25;3.10;;;26.30;63.50;;;;;;5075273;28;20526;-76
2021/08/11 11:52:59;;;;;;;5.93;2.83;;;26.40;61.60;;;;;;5074858;28;20021;-76
2021/08/11 11:55:31;;;;;;;4.25;2.10;;;26.60;61.10;;;;;;5076159;28;20527;-77
2021/08/11 11:58:00;;;;;;;3.53;2.05;;;26.60;60.90;;;;;;5076063;28;20032;-76
2021/08/11 12:00:26;;;;;;;3.70;2.33;;;26.80;60.30;;;;;;5057711;28;20380;-76
2021/08/11 12:02:52;;;;;;;5.18;2.50;;;27.00;59.70;;;;;;5074930;28;20032;-77
2021/08/11 12:05:19;;;;;;;4.50;2.40;;;27.10;59.10;;;;;;5075661;28;20012;-76
2021/08/11 12:07:45;;;;;;;5.28;2.75;;;27.00;58.60;;;;;;5075908;28;20031;-76
2021/08/11 12:10:21;;;;;;;6.43;2.83;;;27.10;58.50;;;;;;5074671;28;20060;-76
2021/08/11 12:13:00;;;;;;;5.03;2.25;;;27.10;58.30;;;;;;5074458;28;20028;-77
2021/08/11 12:15:31;;;;;;;4.13;2.28;;;27.20;58.40;;;;;;5075651;28;20360;-77
2021/08/11 12:17:58;;;;;;;5.05;2.60;;;27.20;58.50;;;;;;5074764;28;20357;-76
2021/08/11 12:20:32;;;;;;;5.05;2.55;;;27.30;57.90;;;;;;5074400;28;20028;-77
2021/08/11 12:22:59;;;;;;;4.25;1.75;;;27.30;57.30;;;;;;5075483;28;20029;-77
2021/08/11 12:25:27;;;;;;;5.53;2.72;;;27.40;57.30;;;;;;5074142;28;20349;-77
2021/08/11 12:28:12;;;;;;;4.65;2.33;;;27.50;56.80;;;;;;5074606;28;20377;-76
2021/08/11 12:30:41;;;;;;;5.70;2.70;;;27.50;56.20;;;;;;5075276;28;20451;-76
2021/08/11 12:33:07;;;;;;;4.20;2.20;;;27.60;56.40;;;;;;5074592;28;20078;-76
2021/08/11 12:35:39;;;;;;;4.05;2.17;;;27.60;56.80;;;;;;5075548;28;20029;-76
2021/08/11 12:38:04;;;;;;;4.68;1.90;;;27.70;55.90;;;;;;5071010;28;20034;-76
2021/08/11 12:40:35;;;;;;;4.82;2.22;;;27.90;56.00;;;;;;5073258;28;20032;-76